createdAt,value
2022-11-21T00:01:52.410Z,98.23
2022-11-21T00:04:21.683Z,98.37
2022-11-21T00:06:53.181Z,98.27
2022-11-21T00:09:22.614Z,98.45
2022-11-21T00:11:53.991Z,98.49
2022-11-21T00:14:28.357Z,98.47
2022-11-21T00:16:59.798Z,99.03
2022-11-21T00:19:29.054Z,98.81
2022-11-21T00:21:58.345Z,98.90
2022-11-21T00:24:27.644Z,98.75
2022-11-21T00:27:02.083Z,98.54
2022-11-21T00:29:31.566Z,98.96
2022-11-21T00:32:02.718Z,97.89
2022-11-21T00:34:32.082Z,98.66
2022-11-21T00:37:01.363Z,98.54
2022-11-21T00:39:30.638Z,98.78
2022-11-21T00:41:59.819Z,98.88
2022-11-21T00:44:29.205Z,98.46
2022-11-21T00:46:58.705Z,98.72
2022-11-21T00:49:30.184Z,98.78
2022-11-21T00:51:59.404Z,98.36
2022-11-21T00:54:28.903Z,98.25
2022-11-21T00:56:58.396Z,98.81
2022-11-21T00:59:27.456Z,99.09
2022-11-21T01:02:01.743Z,98.98
2022-11-21T01:04:35.327Z,99.03
2022-11-21T01:07:04.743Z,98.74
2022-11-21T01:09:33.843Z,98.57
2022-11-21T01:12:02.892Z,99.17
2022-11-21T01:14:32.128Z,98.94
2022-11-21T01:17:01.324Z,99.51
2022-11-21T01:19:30.387Z,99.44
2022-11-21T01:22:01.530Z,99.75
2022-11-21T01:24:30.950Z,99.87
2022-11-21T01:27:00.017Z,99.37
2022-11-21T01:29:29.715Z,99.32
2022-11-21T01:31:58.869Z,98.74
2022-11-21T01:34:28.863Z,99.61
2022-11-21T01:37:03.224Z,99.52
2022-11-21T01:39:34.440Z,99.18
2022-11-21T01:42:03.638Z,99.68
2022-11-21T01:44:54.250Z,99.63
2022-11-21T01:47:24.437Z,98.86
2022-11-21T01:49:56.200Z,98.92
2022-11-21T01:52:27.734Z,98.97
2022-11-21T01:55:01.779Z,99.18
2022-11-21T01:57:39.163Z,99.63
2022-11-21T02:00:12.452Z,99.54
2022-11-21T02:02:46.286Z,99.78
2022-11-21T02:05:21.268Z,99.89
2022-11-21T02:07:59.247Z,99.05
2022-11-21T02:10:30.671Z,99.08
2022-11-21T02:13:06.346Z,98.46
2022-11-21T02:15:35.635Z,98.67
2022-11-21T02:18:04.732Z,98.98
2022-11-21T02:20:52.209Z,99.39
2022-11-21T02:23:27.341Z,99.98
2022-11-21T02:25:58.611Z,99.80
2022-11-21T02:28:28.606Z,99.15
2022-11-21T02:30:57.704Z,98.82
2022-11-21T02:33:26.947Z,99.33
2022-11-21T02:36:00.204Z,99.65
2022-11-21T02:38:44.537Z,99.42
2022-11-21T02:41:25.992Z,98.79
2022-11-21T02:44:06.544Z,98.03
2022-11-21T02:46:37.057Z,98.22
2022-11-21T02:49:14.743Z,97.89
2022-11-21T02:51:43.905Z,96.80
2022-11-21T02:54:13.021Z,97.13
2022-11-21T02:56:44.282Z,97.36
2022-11-21T02:59:13.398Z,97.94
2022-11-21T03:01:42.556Z,97.71
2022-11-21T03:04:12.063Z,97.51
2022-11-21T03:06:41.178Z,98.10
2022-11-21T03:09:12.278Z,98.03
2022-11-21T03:11:43.527Z,97.78
2022-11-21T03:14:13.117Z,97.75
2022-11-21T03:16:42.335Z,98.13
2022-11-21T03:19:11.501Z,97.66
2022-11-21T03:21:46.182Z,97.44
2022-11-21T03:24:15.598Z,97.57
2022-11-21T03:26:46.887Z,97.54
2022-11-21T03:29:16.048Z,97.43
2022-11-21T03:31:45.551Z,97.24
2022-11-21T03:34:14.764Z,97.63
2022-11-21T03:36:43.947Z,97.83
2022-11-21T03:39:13.196Z,97.71
2022-11-21T03:41:47.323Z,97.93
2022-11-21T03:44:18.777Z,97.88
2022-11-21T03:46:49.103Z,96.96
2022-11-21T03:49:18.507Z,96.99
2022-11-21T03:51:47.689Z,97.08
2022-11-21T03:56:51.820Z,97.29
2022-11-21T03:59:23.104Z,97.28
2022-11-21T04:01:57.373Z,97.37
2022-11-21T04:04:26.926Z,96.88
2022-11-21T04:06:56.258Z,96.95
2022-11-21T04:09:25.965Z,97.14
2022-11-21T04:11:55.270Z,97.12
2022-11-21T04:14:26.743Z,96.98
2022-11-21T04:16:56.188Z,97.07
2022-11-21T04:19:25.418Z,96.84
2022-11-21T04:21:54.956Z,97.12
2022-11-21T04:24:24.058Z,96.63
2022-11-21T04:26:53.275Z,96.72
2022-11-21T04:29:22.619Z,96.93
2022-11-21T04:31:54.003Z,96.43
2022-11-21T04:34:23.368Z,96.47
2022-11-21T04:36:52.587Z,96.21
2022-11-21T04:39:21.856Z,96.28
2022-11-21T04:41:56.212Z,96.33
2022-11-21T04:44:26.145Z,96.07
2022-11-21T04:47:05.526Z,95.55
2022-11-21T04:49:35.008Z,95.72
2022-11-21T04:52:10.027Z,95.51
2022-11-21T04:54:39.322Z,95.58
2022-11-21T04:57:09.885Z,96.04
2022-11-21T04:59:39.189Z,95.22
2022-11-21T05:02:10.889Z,95.26
2022-11-21T05:04:40.778Z,94.62
2022-11-21T05:07:10.425Z,94.46
2022-11-21T05:09:44.804Z,94.73
2022-11-21T05:12:26.861Z,95.54
2022-11-21T05:15:02.710Z,94.85
2022-11-21T05:17:35.308Z,94.96
2022-11-21T05:20:05.170Z,94.96
2022-11-21T05:22:34.255Z,95.45
2022-11-21T05:25:03.683Z,95.79
2022-11-21T05:27:38.006Z,95.00
2022-11-21T05:30:08.263Z,95.11
2022-11-21T05:32:39.492Z,95.21
2022-11-21T05:35:09.270Z,95.33
2022-11-21T05:37:38.428Z,95.61
2022-11-21T05:40:09.476Z,95.22
2022-11-21T05:42:54.326Z,95.32
2022-11-21T05:45:23.588Z,95.37
2022-11-21T05:47:54.726Z,96.25
2022-11-21T05:50:29.148Z,96.17
2022-11-21T05:53:02.681Z,96.14
2022-11-21T05:55:32.336Z,96.11
2022-11-21T05:58:02.227Z,95.59
2022-11-21T06:00:32.732Z,95.56
2022-11-21T06:03:28.837Z,95.34
2022-11-21T06:06:07.994Z,95.03
2022-11-21T06:08:39.069Z,94.75
2022-11-21T06:11:09.844Z,94.88
2022-11-21T06:13:39.618Z,94.57
2022-11-21T06:16:16.059Z,94.94
2022-11-21T06:18:49.955Z,94.90
2022-11-21T06:21:22.403Z,94.98
2022-11-21T06:23:53.818Z,94.82
2022-11-21T06:26:24.818Z,94.47
2022-11-21T06:28:54.420Z,94.30
2022-11-21T06:31:25.081Z,94.13
2022-11-21T06:33:57.629Z,94.45
2022-11-21T06:36:27.998Z,94.13
2022-11-21T06:38:58.195Z,94.12
2022-11-21T06:41:34.853Z,94.24
2022-11-21T06:44:04.185Z,94.49
2022-11-21T06:46:33.426Z,94.04
2022-11-21T06:49:10.492Z,93.83
2022-11-21T06:51:46.905Z,93.85
2022-11-21T06:54:21.292Z,93.27
2022-11-21T06:56:55.175Z,93.28
2022-11-21T06:59:29.571Z,93.13
2022-11-21T07:01:58.766Z,93.53
2022-11-21T07:04:30.074Z,92.96
2022-11-21T07:06:59.621Z,93.05
2022-11-21T07:09:33.675Z,92.68
2022-11-21T07:12:23.560Z,92.69
2022-11-21T07:14:51.388Z,92.65
2022-11-21T07:17:23.547Z,92.35
2022-11-21T07:19:55.426Z,91.20
2022-11-21T07:22:24.566Z,91.33
2022-11-21T07:24:53.777Z,91.13
2022-11-21T07:27:23.146Z,91.13
2022-11-21T07:29:52.296Z,90.87
2022-11-21T07:32:21.581Z,90.51
2022-11-21T07:34:50.791Z,91.16
2022-11-21T07:37:22.305Z,90.13
2022-11-21T07:39:51.596Z,90.08
2022-11-21T07:42:20.832Z,90.44
2022-11-21T07:44:49.980Z,89.82
2022-11-21T07:47:19.256Z,88.14
2022-11-21T07:49:50.194Z,88.05
2022-11-21T07:52:26.508Z,87.87
2022-11-21T07:54:55.698Z,88.12
2022-11-21T07:57:24.921Z,88.85
2022-11-21T08:02:30.055Z,87.22
2022-11-21T08:07:41.789Z,88.41
2022-11-21T08:10:11.333Z,86.32
2022-11-21T08:12:41.247Z,86.31
2022-11-21T08:15:16.420Z,87.69
2022-11-21T08:17:45.809Z,86.61
2022-11-21T08:20:15.491Z,86.66
2022-11-21T08:22:46.820Z,87.32
2022-11-21T08:25:16.455Z,87.28
2022-11-21T08:27:45.559Z,86.73
2022-11-21T08:30:16.458Z,86.04
2022-11-21T08:32:45.717Z,85.60
2022-11-21T08:35:14.842Z,84.90
2022-11-21T08:37:46.103Z,85.82
2022-11-21T08:40:15.457Z,86.06
2022-11-21T08:42:45.589Z,85.51
2022-11-21T08:45:14.660Z,86.01
2022-11-21T08:47:44.520Z,86.33
2022-11-21T08:50:14.202Z,85.73
2022-11-21T08:52:45.543Z,85.80
2022-11-21T08:55:15.388Z,85.55
2022-11-21T08:57:49.548Z,86.44
2022-11-21T09:00:19.383Z,86.00
2022-11-21T09:02:48.620Z,85.88
2022-11-21T09:05:18.039Z,85.54
2022-11-21T09:07:49.562Z,85.89
2022-11-21T09:10:19.026Z,85.62
2022-11-21T09:12:48.393Z,85.45
2022-11-21T09:15:30.720Z,85.65
2022-11-21T09:18:07.451Z,84.84
2022-11-21T09:20:42.263Z,84.49
2022-11-21T09:23:14.973Z,83.59
2022-11-21T09:25:45.046Z,84.04
2022-11-21T09:28:15.791Z,84.05
2022-11-21T09:30:46.327Z,84.89
2022-11-21T09:33:17.089Z,84.62
2022-11-21T09:35:51.687Z,84.64
2022-11-21T09:38:24.359Z,84.63
2022-11-21T09:40:58.952Z,85.00
2022-11-21T09:43:46.787Z,82.89
2022-11-21T09:46:30.404Z,83.75
2022-11-21T09:49:03.089Z,83.70
2022-11-21T09:51:33.623Z,83.13
2022-11-21T09:54:07.480Z,83.44
2022-11-21T09:56:50.881Z,82.99
2022-11-21T09:59:34.894Z,83.45
2022-11-21T10:02:22.712Z,83.85
2022-11-21T10:04:54.465Z,83.44
2022-11-21T10:07:27.881Z,84.01
2022-11-21T10:10:19.759Z,84.52
2022-11-21T10:13:08.111Z,84.36
2022-11-21T10:15:52.200Z,84.28
2022-11-21T10:18:47.234Z,84.97
2022-11-21T10:21:34.310Z,84.22
2022-11-21T10:24:19.266Z,84.22
2022-11-21T10:26:55.576Z,84.56
2022-11-21T10:29:29.834Z,83.94
2022-11-21T10:32:04.802Z,83.38
2022-11-21T10:34:43.943Z,83.30
2022-11-21T10:37:18.964Z,83.20
2022-11-21T10:39:51.811Z,83.01
2022-11-21T10:42:34.262Z,82.88
2022-11-21T10:45:17.953Z,82.78
2022-11-21T10:47:48.729Z,83.68
2022-11-21T10:50:34.476Z,83.78
2022-11-21T10:53:41.059Z,84.26
2022-11-21T10:56:14.553Z,84.18
2022-11-21T10:58:48.368Z,83.78
2022-11-21T11:01:29.832Z,84.17
2022-11-21T11:04:27.793Z,83.21
2022-11-21T11:09:36.272Z,83.34
2022-11-21T11:12:47.602Z,83.29
2022-11-21T11:15:25.183Z,83.33
2022-11-21T11:17:57.430Z,83.07
2022-11-21T11:20:39.603Z,83.18
2022-11-21T11:23:28.383Z,83.07
2022-11-21T11:25:59.510Z,83.20
2022-11-21T11:28:35.610Z,83.37
2022-11-21T11:31:07.094Z,83.16
2022-11-21T11:33:42.704Z,83.11
2022-11-21T11:36:15.821Z,82.78
2022-11-21T11:38:50.602Z,83.17
2022-11-21T11:42:01.977Z,82.75
2022-11-21T11:44:54.484Z,82.33
2022-11-21T11:47:32.828Z,83.23
2022-11-21T11:50:14.562Z,83.37
2022-11-21T11:52:54.120Z,83.31
2022-11-21T11:55:31.432Z,82.90
2022-11-21T11:58:13.084Z,83.77
2022-11-21T12:00:52.577Z,83.46
2022-11-21T12:03:31.288Z,83.30
2022-11-21T12:06:09.600Z,83.07
2022-11-21T12:08:47.600Z,83.63
2022-11-21T12:11:45.354Z,84.27
2022-11-21T12:14:34.857Z,83.42
2022-11-21T12:17:07.719Z,83.71
2022-11-21T12:19:40.339Z,84.40
2022-11-21T12:22:14.638Z,83.94
2022-11-21T12:24:43.919Z,83.47
2022-11-21T12:27:34.495Z,84.03
2022-11-21T12:30:23.094Z,84.25
2022-11-21T12:33:06.617Z,84.54
2022-11-21T12:36:16.750Z,84.92
2022-11-21T12:39:09.137Z,83.54
2022-11-21T12:41:58.676Z,84.11
2022-11-21T12:44:40.903Z,84.77
2022-11-21T12:47:25.350Z,85.06
2022-11-21T12:55:37.053Z,85.66
2022-11-21T12:58:16.868Z,85.72
2022-11-21T13:00:57.304Z,85.39
2022-11-21T13:03:45.953Z,85.73
2022-11-21T13:06:19.820Z,85.26
2022-11-21T13:08:51.365Z,85.04
2022-11-21T13:11:51.189Z,85.16
2022-11-21T13:14:27.313Z,85.73
2022-11-21T13:17:10.899Z,86.10
2022-11-21T13:19:50.565Z,86.21
2022-11-21T13:22:49.442Z,86.08
2022-11-21T13:25:48.073Z,86.47
2022-11-21T13:28:45.837Z,86.38
2022-11-21T13:31:30.490Z,86.99
2022-11-21T13:34:00.378Z,86.14
2022-11-21T13:36:43.709Z,86.80
2022-11-21T13:39:31.691Z,86.76
2022-11-21T13:42:19.918Z,86.39
2022-11-21T13:44:53.565Z,86.76
2022-11-21T13:47:56.669Z,87.00
2022-11-21T13:50:45.290Z,86.82
2022-11-21T13:53:30.883Z,86.52
2022-11-21T13:56:12.853Z,86.41
2022-11-21T13:58:56.387Z,86.67
2022-11-21T14:01:58.360Z,86.48
2022-11-21T14:05:05.348Z,87.49
2022-11-21T14:07:37.363Z,87.31
2022-11-21T14:10:20.062Z,87.71
2022-11-21T14:12:51.643Z,87.91
2022-11-21T14:15:32.673Z,88.06
2022-11-21T14:18:04.587Z,87.95
2022-11-21T14:20:50.321Z,88.32
2022-11-21T14:23:21.965Z,88.11
2022-11-21T14:25:53.562Z,88.06
2022-11-21T14:28:26.491Z,88.23
2022-11-21T14:30:59.325Z,88.00
2022-11-21T14:33:37.148Z,87.92
2022-11-21T14:36:16.207Z,88.49
2022-11-21T14:38:51.006Z,88.84
2022-11-21T14:41:33.803Z,89.02
2022-11-21T14:44:09.940Z,88.57
2022-11-21T14:46:40.826Z,87.90
2022-11-21T14:49:25.204Z,88.20
2022-11-21T14:52:00.760Z,88.10
2022-11-21T14:54:38.516Z,88.42
2022-11-21T14:57:09.893Z,89.09
2022-11-21T14:59:43.160Z,88.07
2022-11-21T15:02:15.028Z,88.97
2022-11-21T15:07:23.690Z,88.31
2022-11-21T15:12:54.388Z,88.10
2022-11-21T15:15:32.907Z,88.72
2022-11-21T15:18:27.377Z,88.71
2022-11-21T15:21:00.056Z,88.59
2022-11-21T15:23:31.480Z,88.33
2022-11-21T15:26:06.678Z,88.51
2022-11-21T15:28:35.868Z,88.46
2022-11-21T15:31:18.922Z,89.09
2022-11-21T15:34:27.776Z,88.73
2022-11-21T15:37:10.450Z,89.22
2022-11-21T15:39:45.836Z,89.03
2022-11-21T15:42:36.022Z,89.63
2022-11-21T15:45:26.458Z,90.09
2022-11-21T15:47:56.387Z,90.13
2022-11-21T15:50:27.171Z,89.92
2022-11-21T15:52:58.634Z,90.29
2022-11-21T15:55:31.049Z,89.67
2022-11-21T15:58:05.578Z,90.12
2022-11-21T16:00:35.263Z,90.36
2022-11-21T16:03:04.433Z,90.71
2022-11-21T16:05:33.783Z,91.05
2022-11-21T16:08:04.962Z,90.25
2022-11-21T16:10:40.730Z,91.63
2022-11-21T16:13:14.984Z,91.30
2022-11-21T16:15:44.163Z,91.54
2022-11-21T16:18:13.410Z,91.46
2022-11-21T16:20:42.676Z,91.01
2022-11-21T16:23:14.437Z,90.72
2022-11-21T16:25:55.058Z,91.02
2022-11-21T16:28:24.753Z,90.96
2022-11-21T16:30:54.063Z,91.82
2022-11-21T16:33:27.153Z,91.83
2022-11-21T16:35:57.316Z,91.67
2022-11-21T16:38:30.256Z,91.59
2022-11-21T16:41:06.139Z,92.22
2022-11-21T16:43:35.380Z,91.33
2022-11-21T16:46:09.739Z,91.53
2022-11-21T16:48:40.666Z,92.32
2022-11-21T16:51:14.260Z,92.44
2022-11-21T16:53:45.918Z,92.06
2022-11-21T16:56:15.787Z,92.25
2022-11-21T16:58:45.273Z,92.16
2022-11-21T17:01:16.371Z,92.24
2022-11-21T17:03:47.662Z,92.84
2022-11-21T17:06:19.555Z,92.46
2022-11-21T17:08:50.613Z,92.85
2022-11-21T17:11:22.037Z,93.10
2022-11-21T17:13:52.941Z,92.93
2022-11-21T17:16:23.864Z,92.12
2022-11-21T17:18:55.531Z,92.02
2022-11-21T17:21:25.566Z,92.63
2022-11-21T17:23:56.985Z,92.71
2022-11-21T17:29:04.568Z,92.65
2022-11-21T17:31:34.139Z,92.60
2022-11-21T17:34:04.152Z,93.53
2022-11-21T17:36:34.183Z,93.53
2022-11-21T17:39:12.324Z,93.59
2022-11-21T17:41:41.774Z,94.61
2022-11-21T17:44:14.887Z,94.92
2022-11-21T17:46:44.325Z,94.83
2022-11-21T17:49:14.023Z,94.90
2022-11-21T17:51:43.894Z,94.59
2022-11-21T17:54:15.306Z,93.82
2022-11-21T17:56:47.388Z,93.64
2022-11-21T17:59:20.832Z,93.87
2022-11-21T18:01:58.498Z,95.15
2022-11-21T18:04:28.281Z,95.39
2022-11-21T18:06:58.268Z,95.53
2022-11-21T18:09:30.201Z,95.56
2022-11-21T18:12:00.283Z,95.69
2022-11-21T18:14:30.702Z,95.70
2022-11-21T18:16:59.994Z,95.57
2022-11-21T18:19:29.267Z,95.23
2022-11-21T18:24:40.909Z,94.69
2022-11-21T18:27:10.423Z,95.86
2022-11-21T18:29:44.860Z,96.23
2022-11-21T18:32:14.206Z,95.46
2022-11-21T18:34:43.814Z,95.48
2022-11-21T18:37:18.376Z,95.88
2022-11-21T18:39:49.842Z,96.37
2022-11-21T18:42:19.114Z,95.91
2022-11-21T18:44:48.585Z,96.71
2022-11-21T18:47:20.927Z,96.73
2022-11-21T18:49:55.708Z,97.03
2022-11-21T18:52:25.059Z,97.13
2022-11-21T18:54:56.335Z,96.64
2022-11-21T18:57:25.774Z,96.58
2022-11-21T18:59:55.070Z,96.53
2022-11-21T19:02:29.657Z,97.39
2022-11-21T19:04:58.913Z,97.14
2022-11-21T19:07:28.480Z,97.18
2022-11-21T19:10:20.661Z,97.21
2022-11-21T19:12:49.400Z,97.23
2022-11-21T19:15:23.697Z,97.04
2022-11-21T19:17:52.978Z,96.89
2022-11-21T19:20:22.233Z,97.19
2022-11-21T19:22:52.220Z,97.90
2022-11-21T19:25:23.565Z,97.80
2022-11-21T19:27:59.579Z,98.29
2022-11-21T19:30:30.012Z,98.20
2022-11-21T19:33:06.617Z,98.52
2022-11-21T19:35:39.350Z,98.51
2022-11-21T19:41:03.633Z,98.55
2022-11-21T19:43:33.724Z,98.42
2022-11-21T19:46:05.009Z,98.67
2022-11-21T19:48:34.481Z,98.54
2022-11-21T19:51:05.278Z,98.93
2022-11-21T19:53:37.960Z,98.32
2022-11-21T19:56:14.873Z,98.07
2022-11-21T19:58:49.865Z,97.38
2022-11-21T20:01:21.219Z,98.28
2022-11-21T20:03:52.437Z,99.08
2022-11-21T20:06:23.908Z,98.92
2022-11-21T20:08:55.104Z,98.80
2022-11-21T20:11:28.387Z,99.20
2022-11-21T20:13:57.934Z,99.17
2022-11-21T20:16:28.919Z,98.82
2022-11-21T20:19:07.757Z,98.43
2022-11-21T20:21:38.652Z,98.79
2022-11-21T20:24:14.215Z,98.61
2022-11-21T20:26:46.721Z,98.97
2022-11-21T20:29:16.600Z,98.72
2022-11-21T20:31:47.841Z,98.80
2022-11-21T20:34:17.137Z,98.64
2022-11-21T20:36:46.440Z,98.74
2022-11-21T20:39:16.823Z,98.31
2022-11-21T20:41:55.343Z,97.98
2022-11-21T20:47:18.928Z,97.61
2022-11-21T20:49:48.149Z,97.33
2022-11-21T20:55:12.779Z,97.56
2022-11-21T20:57:44.123Z,97.99
2022-11-21T21:00:15.636Z,98.91
2022-11-21T21:02:44.900Z,98.59
2022-11-21T21:05:14.099Z,98.62
2022-11-21T21:07:43.442Z,98.24
2022-11-21T21:10:12.969Z,98.01
2022-11-21T21:12:48.487Z,98.96
2022-11-21T21:15:18.268Z,98.21
2022-11-21T21:17:47.434Z,98.17
2022-11-21T21:20:16.803Z,98.57
2022-11-21T21:22:45.986Z,98.64
2022-11-21T21:25:15.420Z,98.33
2022-11-21T21:27:49.886Z,97.96
2022-11-21T21:30:20.391Z,98.60
2022-11-21T21:32:49.485Z,98.01
2022-11-21T21:35:19.104Z,97.95
2022-11-21T21:37:48.400Z,98.13
2022-11-21T21:40:18.666Z,98.04
2022-11-21T21:42:50.023Z,98.20
2022-11-21T21:45:19.644Z,98.80
2022-11-21T21:47:48.982Z,99.07
2022-11-21T21:50:23.291Z,98.71
2022-11-21T21:52:52.470Z,98.47
2022-11-21T21:55:21.739Z,98.99
2022-11-21T21:57:53.309Z,98.51
2022-11-21T22:00:22.750Z,98.36
2022-11-21T22:02:51.912Z,98.40
2022-11-21T22:05:26.166Z,98.50
2022-11-21T22:07:55.464Z,98.00
2022-11-21T22:10:24.680Z,97.94
2022-11-21T22:12:56.711Z,97.62
2022-11-21T22:15:26.017Z,97.61
2022-11-21T22:17:55.260Z,97.30
2022-11-21T22:20:24.494Z,96.92
2022-11-21T22:22:57.648Z,97.37
2022-11-21T22:25:34.624Z,97.33
2022-11-21T22:28:06.139Z,97.22
2022-11-21T22:30:35.439Z,97.46
2022-11-21T22:33:04.689Z,96.91
2022-11-21T22:35:34.353Z,97.10
2022-11-21T22:38:03.698Z,96.65
2022-11-21T22:40:33.894Z,97.02
2022-11-21T22:43:03.093Z,97.01
2022-11-21T22:45:34.852Z,97.47
2022-11-21T22:48:03.728Z,97.70
2022-11-21T22:50:33.231Z,97.76
2022-11-21T22:53:02.608Z,98.29
2022-11-21T22:55:31.795Z,98.45
2022-11-21T22:58:01.119Z,99.21
2022-11-21T23:00:42.627Z,98.97
2022-11-21T23:03:12.417Z,99.43
2022-11-21T23:05:41.550Z,99.09
2022-11-21T23:08:10.802Z,99.09
2022-11-21T23:10:39.953Z,99.05
2022-11-21T23:13:09.285Z,99.65
2022-11-21T23:15:40.475Z,99.48
2022-11-21T23:18:14.830Z,99.66
2022-11-21T23:20:45.283Z,99.62
2022-11-21T23:23:14.396Z,99.27
2022-11-21T23:25:43.516Z,99.19
2022-11-21T23:28:12.971Z,99.67
2022-11-21T23:30:46.722Z,99.95
2022-11-21T23:33:21.237Z,99.63
2022-11-21T23:35:50.893Z,99.71
2022-11-21T23:38:20.374Z,99.75
2022-11-21T23:40:51.110Z,99.12
2022-11-21T23:43:20.967Z,99.07
2022-11-21T23:45:55.070Z,98.97
2022-11-21T23:48:25.478Z,98.65
2022-11-21T23:50:54.654Z,98.84
2022-11-21T23:53:29.622Z,98.72
2022-11-21T23:55:58.899Z,99.17
2022-11-21T23:58:28.067Z,99.18
